sensor_id;sensor_type;location;lat;lon;timestamp;pressure;altitude;pressure_sealevel;temperature;humidity
20156;BME280;10238;49.556;10.956;2023-09-07T00:00:13;98794.22;;;15.12;100.00
20156;BME280;10238;49.556;10.956;2023-09-07T00:03:02;98793.53;;;15.10;100.00
20156;BME280;10238;49.556;10.956;2023-09-07T00:05:51;98794.06;;;15.06;100.00
20156;BME280;10238;49.556;10.956;2023-09-07T00:08:38;98792.91;;;15.00;100.00
20156;BME280;10238;49.556;10.956;2023-09-07T00:11:26;98790.22;;;15.00;100.00
20156;BME280;10238;49.556;10.956;2023-09-07T00:14:15;98794.59;;;14.93;100.00
20156;BME280;10238;49.556;10.956;2023-09-07T00:17:03;98792.94;;;14.92;100.00
20156;BME280;10238;49.556;10.956;2023-09-07T00:19:51;98791.25;;;14.91;100.00
20156;BME280;10238;49.556;10.956;2023-09-07T00:22:41;98797.63;;;14.90;100.00
20156;BME280;10238;49.556;10.956;2023-09-07T00:25:29;98798.97;;;14.86;100.00
20156;BME280;10238;49.556;10.956;2023-09-07T00:28:16;98799.31;;;14.83;100.00
20156;BME280;10238;49.556;10.956;2023-09-07T00:31:05;98797.50;;;14.84;100.00
20156;BME280;10238;49.556;10.956;2023-09-07T00:33:53;98793.63;;;14.86;100.00
20156;BME280;10238;49.556;10.956;2023-09-07T00:36:40;98792.94;;;14.84;100.00
20156;BME280;10238;49.556;10.956;2023-09-07T00:39:28;98795.16;;;14.81;100.00
20156;BME280;10238;49.556;10.956;2023-09-07T00:42:16;98790.63;;;14.81;100.00
20156;BME280;10238;49.556;10.956;2023-09-07T00:45:05;98792.13;;;14.76;100.00
20156;BME280;10238;49.556;10.956;2023-09-07T00:47:57;98789.13;;;14.71;100.00
20156;BME280;10238;49.556;10.956;2023-09-07T00:50:46;98790.66;;;14.65;100.00
20156;BME280;10238;49.556;10.956;2023-09-07T00:53:34;98792.69;;;14.63;100.00
20156;BME280;10238;49.556;10.956;2023-09-07T00:56:21;98795.00;;;14.58;100.00
20156;BME280;10238;49.556;10.956;2023-09-07T00:59:11;98789.31;;;14.53;100.00
20156;BME280;10238;49.556;10.956;2023-09-07T01:01:59;98792.34;;;14.50;100.00
20156;BME280;10238;49.556;10.956;2023-09-07T01:04:50;98792.69;;;14.47;100.00
20156;BME280;10238;49.556;10.956;2023-09-07T01:07:44;98788.50;;;14.45;100.00
20156;BME280;10238;49.556;10.956;2023-09-07T01:10:33;98786.00;;;14.43;100.00
20156;BME280;10238;49.556;10.956;2023-09-07T01:13:20;98780.97;;;14.40;100.00
20156;BME280;10238;49.556;10.956;2023-09-07T01:16:09;98783.34;;;14.35;100.00
20156;BME280;10238;49.556;10.956;2023-09-07T01:18:57;98787.19;;;14.33;100.00
20156;BME280;10238;49.556;10.956;2023-09-07T01:21:48;98789.50;;;14.28;100.00
20156;BME280;10238;49.556;10.956;2023-09-07T01:24:38;98794.00;;;14.27;100.00
20156;BME280;10238;49.556;10.956;2023-09-07T01:27:27;98789.69;;;14.26;100.00
20156;BME280;10238;49.556;10.956;2023-09-07T01:30:16;98783.94;;;14.21;100.00
20156;BME280;10238;49.556;10.956;2023-09-07T01:33:04;98784.78;;;14.22;100.00
20156;BME280;10238;49.556;10.956;2023-09-07T01:35:52;98782.63;;;14.17;100.00
20156;BME280;10238;49.556;10.956;2023-09-07T01:38:41;98779.31;;;14.15;100.00
20156;BME280;10238;49.556;10.956;2023-09-07T01:41:29;98775.25;;;14.11;100.00
20156;BME280;10238;49.556;10.956;2023-09-07T01:44:17;98781.28;;;14.05;100.00
20156;BME280;10238;49.556;10.956;2023-09-07T01:47:04;98778.28;;;14.00;100.00
20156;BME280;10238;49.556;10.956;2023-09-07T01:49:52;98776.94;;;13.96;100.00
20156;BME280;10238;49.556;10.956;2023-09-07T01:52:40;98775.25;;;13.95;100.00
20156;BME280;10238;49.556;10.956;2023-09-07T01:55:29;98777.28;;;13.93;100.00
20156;BME280;10238;49.556;10.956;2023-09-07T01:58:17;98769.41;;;13.92;100.00
20156;BME280;10238;49.556;10.956;2023-09-07T02:01:05;98775.75;;;13.91;100.00
20156;BME280;10238;49.556;10.956;2023-09-07T02:03:52;98775.59;;;13.92;100.00
20156;BME280;10238;49.556;10.956;2023-09-07T02:06:40;98779.91;;;13.85;100.00
20156;BME280;10238;49.556;10.956;2023-09-07T02:09:28;98775.75;;;13.83;100.00
20156;BME280;10238;49.556;10.956;2023-09-07T02:12:16;98777.75;;;13.81;100.00
20156;BME280;10238;49.556;10.956;2023-09-07T02:15:06;98776.56;;;13.75;100.00
20156;BME280;10238;49.556;10.956;2023-09-07T02:17:53;98774.56;;;13.69;100.00
20156;BME280;10238;49.556;10.956;2023-09-07T02:20:43;98781.88;;;13.67;100.00
20156;BME280;10238;49.556;10.956;2023-09-07T02:23:32;98777.72;;;13.65;100.00
20156;BME280;10238;49.556;10.956;2023-09-07T02:26:20;98789.41;;;13.64;100.00
20156;BME280;10238;49.556;10.956;2023-09-07T02:29:09;98791.56;;;13.60;100.00
20156;BME280;10238;49.556;10.956;2023-09-07T02:31:57;98792.88;;;13.56;100.00
20156;BME280;10238;49.556;10.956;2023-09-07T02:34:44;98798.56;;;13.53;100.00
20156;BME280;10238;49.556;10.956;2023-09-07T02:37:32;98797.22;;;13.49;100.00
20156;BME280;10238;49.556;10.956;2023-09-07T02:40:20;98799.88;;;13.49;100.00
20156;BME280;10238;49.556;10.956;2023-09-07T02:43:07;98805.53;;;13.46;100.00
20156;BME280;10238;49.556;10.956;2023-09-07T02:45:56;98796.84;;;13.44;100.00
20156;BME280;10238;49.556;10.956;2023-09-07T02:48:44;98796.03;;;13.44;100.00
20156;BME280;10238;49.556;10.956;2023-09-07T02:51:31;98799.84;;;13.41;100.00
20156;BME280;10238;49.556;10.956;2023-09-07T02:54:19;98800.00;;;13.40;100.00
20156;BME280;10238;49.556;10.956;2023-09-07T02:57:07;98799.19;;;13.39;100.00
20156;BME280;10238;49.556;10.956;2023-09-07T02:59:54;98802.00;;;13.38;100.00
20156;BME280;10238;49.556;10.956;2023-09-07T03:02:44;98805.16;;;13.33;100.00
20156;BME280;10238;49.556;10.956;2023-09-07T03:05:32;98801.28;;;13.28;100.00
20156;BME280;10238;49.556;10.956;2023-09-07T03:08:19;98796.44;;;13.23;100.00
20156;BME280;10238;49.556;10.956;2023-09-07T03:11:08;98794.09;;;13.20;100.00
20156;BME280;10238;49.556;10.956;2023-09-07T03:13:56;98794.41;;;13.17;100.00
20156;BME280;10238;49.556;10.956;2023-09-07T03:16:44;98793.72;;;13.15;100.00
20156;BME280;10238;49.556;10.956;2023-09-07T03:19:33;98794.75;;;13.14;100.00
20156;BME280;10238;49.556;10.956;2023-09-07T03:22:21;98797.03;;;13.09;100.00
20156;BME280;10238;49.556;10.956;2023-09-07T03:25:11;98794.69;;;13.06;100.00
20156;BME280;10238;49.556;10.956;2023-09-07T03:27:59;98796.00;;;13.02;100.00
20156;BME280;10238;49.556;10.956;2023-09-07T03:30:46;98801.94;;;12.96;100.00
20156;BME280;10238;49.556;10.956;2023-09-07T03:33:34;98800.28;;;12.95;100.00
20156;BME280;10238;49.556;10.956;2023-09-07T03:36:23;98794.09;;;12.94;100.00
20156;BME280;10238;49.556;10.956;2023-09-07T03:39:11;98794.94;;;12.95;100.00
20156;BME280;10238;49.556;10.956;2023-09-07T03:41:58;98800.59;;;12.92;100.00
20156;BME280;10238;49.556;10.956;2023-09-07T03:44:46;98800.59;;;12.92;100.00
20156;BME280;10238;49.556;10.956;2023-09-07T03:47:33;98803.56;;;12.89;100.00
20156;BME280;10238;49.556;10.956;2023-09-07T03:50:21;98806.09;;;12.90;100.00
20156;BME280;10238;49.556;10.956;2023-09-07T03:53:10;98801.59;;;12.91;100.00
20156;BME280;10238;49.556;10.956;2023-09-07T03:55:58;98797.56;;;12.87;100.00
20156;BME280;10238;49.556;10.956;2023-09-07T03:58:46;98803.88;;;12.86;100.00
20156;BME280;10238;49.556;10.956;2023-09-07T04:01:34;98795.88;;;12.86;100.00
20156;BME280;10238;49.556;10.956;2023-09-07T04:04:22;98789.88;;;12.84;100.00
20156;BME280;10238;49.556;10.956;2023-09-07T04:07:09;98801.84;;;12.80;100.00
20156;BME280;10238;49.556;10.956;2023-09-07T04:09:58;98802.16;;;12.77;100.00
20156;BME280;10238;49.556;10.956;2023-09-07T04:12:46;98799.50;;;12.77;100.00
20156;BME280;10238;49.556;10.956;2023-09-07T04:15:34;98795.97;;;12.76;100.00
20156;BME280;10238;49.556;10.956;2023-09-07T04:18:28;98796.13;;;12.75;100.00
20156;BME280;10238;49.556;10.956;2023-09-07T04:21:17;98803.63;;;12.71;100.00
20156;BME280;10238;49.556;10.956;2023-09-07T04:24:05;98803.09;;;12.68;100.00
20156;BME280;10238;49.556;10.956;2023-09-07T04:26:59;98798.78;;;12.67;100.00
20156;BME280;10238;49.556;10.956;2023-09-07T04:29:48;98803.72;;;12.62;100.00
20156;BME280;10238;49.556;10.956;2023-09-07T04:32:36;98806.03;;;12.57;100.00
20156;BME280;10238;49.556;10.956;2023-09-07T04:35:28;98810.69;;;12.55;100.00
20156;BME280;10238;49.556;10.956;2023-09-07T04:38:17;98812.53;;;12.54;100.00
20156;BME280;10238;49.556;10.956;2023-09-07T04:41:07;98813.66;;;12.52;100.00
20156;BME280;10238;49.556;10.956;2023-09-07T04:43:57;98820.69;;;12.53;100.00
20156;BME280;10238;49.556;10.956;2023-09-07T04:46:44;98830.50;;;12.52;100.00
20156;BME280;10238;49.556;10.956;2023-09-07T04:49:32;98820.69;;;12.53;100.00
20156;BME280;10238;49.556;10.956;2023-09-07T04:52:20;98830.81;;;12.49;100.00
20156;BME280;10238;49.556;10.956;2023-09-07T04:55:08;98829.97;;;12.49;100.00
20156;BME280;10238;49.556;10.956;2023-09-07T04:57:56;98828.47;;;12.46;100.00
20156;BME280;10238;49.556;10.956;2023-09-07T05:00:45;98835.59;;;12.46;100.00
20156;BME280;10238;49.556;10.956;2023-09-07T05:03:32;98829.31;;;12.47;100.00
20156;BME280;10238;49.556;10.956;2023-09-07T05:06:20;98836.31;;;12.48;100.00
20156;BME280;10238;49.556;10.956;2023-09-07T05:09:09;98837.97;;;12.49;100.00
20156;BME280;10238;49.556;10.956;2023-09-07T05:11:57;98839.81;;;12.48;100.00
20156;BME280;10238;49.556;10.956;2023-09-07T05:14:45;98842.63;;;12.47;100.00
20156;BME280;10238;49.556;10.956;2023-09-07T05:17:34;98835.59;;;12.46;100.00
20156;BME280;10238;49.556;10.956;2023-09-07T05:20:22;98833.78;;;12.46;100.00
20156;BME280;10238;49.556;10.956;2023-09-07T05:23:09;98840.63;;;12.49;100.00
20156;BME280;10238;49.556;10.956;2023-09-07T05:25:57;98846.81;;;12.49;100.00
20156;BME280;10238;49.556;10.956;2023-09-07T05:28:45;98843.84;;;12.52;100.00
20156;BME280;10238;49.556;10.956;2023-09-07T05:31:32;98845.97;;;12.49;100.00
20156;BME280;10238;49.556;10.956;2023-09-07T05:34:21;98844.00;;;12.51;100.00
20156;BME280;10238;49.556;10.956;2023-09-07T05:37:09;98844.16;;;12.49;100.00
20156;BME280;10238;49.556;10.956;2023-09-07T05:39:57;98852.00;;;12.51;100.00
20156;BME280;10238;49.556;10.956;2023-09-07T05:42:45;98858.03;;;12.53;100.00
20156;BME280;10238;49.556;10.956;2023-09-07T05:45:36;98849.03;;;12.54;100.00
20156;BME280;10238;49.556;10.956;2023-09-07T05:48:24;98860.38;;;12.56;100.00
20156;BME280;10238;49.556;10.956;2023-09-07T05:51:13;98854.41;;;12.62;100.00
20156;BME280;10238;49.556;10.956;2023-09-07T05:54:01;98858.75;;;12.63;100.00
20156;BME280;10238;49.556;10.956;2023-09-07T05:56:49;98854.78;;;12.67;100.00
20156;BME280;10238;49.556;10.956;2023-09-07T05:59:36;98850.16;;;12.69;100.00
20156;BME280;10238;49.556;10.956;2023-09-07T06:02:25;98854.66;;;12.76;100.00
20156;BME280;10238;49.556;10.956;2023-09-07T06:05:13;98856.09;;;12.88;100.00
20156;BME280;10238;49.556;10.956;2023-09-07T06:08:02;98856.31;;;12.95;100.00
20156;BME280;10238;49.556;10.956;2023-09-07T06:10:50;98861.06;;;13.01;100.00
20156;BME280;10238;49.556;10.956;2023-09-07T06:13:38;98855.75;;;13.09;100.00
20156;BME280;10238;49.556;10.956;2023-09-07T06:16:25;98849.16;;;13.21;100.00
20156;BME280;10238;49.556;10.956;2023-09-07T06:19:13;98862.53;;;13.29;100.00
20156;BME280;10238;49.556;10.956;2023-09-07T06:22:00;98859.59;;;13.40;100.00
20156;BME280;10238;49.556;10.956;2023-09-07T06:24:49;98858.81;;;13.56;100.00
20156;BME280;10238;49.556;10.956;2023-09-07T06:27:37;98861.84;;;13.61;100.00
20156;BME280;10238;49.556;10.956;2023-09-07T06:30:25;98859.53;;;13.66;100.00
20156;BME280;10238;49.556;10.956;2023-09-07T06:33:12;98857.69;;;13.66;100.00
20156;BME280;10238;49.556;10.956;2023-09-07T06:36:00;98854.91;;;13.84;100.00
20156;BME280;10238;49.556;10.956;2023-09-07T06:38:48;98858.78;;;13.97;100.00
20156;BME280;10238;49.556;10.956;2023-09-07T06:41:37;98859.81;;;14.04;100.00
20156;BME280;10238;49.556;10.956;2023-09-07T06:44:25;98863.69;;;14.18;100.00
20156;BME280;10238;49.556;10.956;2023-09-07T06:47:12;98866.03;;;14.21;100.00
20156;BME280;10238;49.556;10.956;2023-09-07T06:50:01;98868.25;;;14.41;100.00
20156;BME280;10238;49.556;10.956;2023-09-07T06:52:49;98864.56;;;14.58;100.00
20156;BME280;10238;49.556;10.956;2023-09-07T06:55:37;98871.59;;;14.75;100.00
20156;BME280;10238;49.556;10.956;2023-09-07T06:58:26;98869.94;;;14.82;100.00
20156;BME280;10238;49.556;10.956;2023-09-07T07:01:15;98870.09;;;14.97;100.00
20156;BME280;10238;49.556;10.956;2023-09-07T07:04:03;98871.38;;;15.17;100.00
20156;BME280;10238;49.556;10.956;2023-09-07T07:06:51;98863.28;;;15.33;100.00
20156;BME280;10238;49.556;10.956;2023-09-07T07:09:40;98871.13;;;15.51;100.00
20156;BME280;10238;49.556;10.956;2023-09-07T07:12:28;98871.56;;;15.70;100.00
20156;BME280;10238;49.556;10.956;2023-09-07T07:15:17;98869.28;;;15.90;100.00
20156;BME280;10238;49.556;10.956;2023-09-07T07:18:05;98870.25;;;15.97;100.00
20156;BME280;10238;49.556;10.956;2023-09-07T07:20:55;98863.25;;;16.18;100.00
20156;BME280;10238;49.556;10.956;2023-09-07T07:23:43;98859.94;;;16.39;100.00
20156;BME280;10238;49.556;10.956;2023-09-07T07:26:30;98848.78;;;16.50;100.00
20156;BME280;10238;49.556;10.956;2023-09-07T07:29:18;98843.00;;;16.61;100.00
20156;BME280;10238;49.556;10.956;2023-09-07T07:32:07;98840.31;;;16.98;100.00
20156;BME280;10238;49.556;10.956;2023-09-07T07:34:55;98841.06;;;17.21;100.00
20156;BME280;10238;49.556;10.956;2023-09-07T07:37:43;98837.19;;;17.38;100.00
20156;BME280;10238;49.556;10.956;2023-09-07T07:40:32;98835.63;;;17.44;100.00
20156;BME280;10238;49.556;10.956;2023-09-07T07:43:19;98827.66;;;17.50;100.00
20156;BME280;10238;49.556;10.956;2023-09-07T07:46:08;98833.03;;;17.65;100.00
20156;BME280;10238;49.556;10.956;2023-09-07T07:48:58;98818.34;;;17.82;100.00
20156;BME280;10238;49.556;10.956;2023-09-07T07:51:45;98817.28;;;17.97;100.00
20156;BME280;10238;49.556;10.956;2023-09-07T07:54:34;98811.06;;;18.18;100.00
20156;BME280;10238;49.556;10.956;2023-09-07T07:57:22;98809.81;;;18.35;100.00
20156;BME280;10238;49.556;10.956;2023-09-07T08:00:12;98804.25;;;18.57;100.00
20156;BME280;10238;49.556;10.956;2023-09-07T08:03:00;98800.28;;;18.81;100.00
20156;BME280;10238;49.556;10.956;2023-09-07T08:05:49;98801.31;;;19.07;100.00
20156;BME280;10238;49.556;10.956;2023-09-07T08:08:38;98790.63;;;19.20;100.00
20156;BME280;10238;49.556;10.956;2023-09-07T08:11:26;98800.31;;;19.49;100.00
20156;BME280;10238;49.556;10.956;2023-09-07T08:14:13;98795.44;;;19.66;100.00
20156;BME280;10238;49.556;10.956;2023-09-07T08:17:01;98785.16;;;20.02;100.00
20156;BME280;10238;49.556;10.956;2023-09-07T08:19:49;98784.00;;;20.24;100.00
20156;BME280;10238;49.556;10.956;2023-09-07T08:22:43;98773.25;;;20.50;100.00
20156;BME280;10238;49.556;10.956;2023-09-07T08:25:32;98769.06;;;20.73;100.00
20156;BME280;10238;49.556;10.956;2023-09-07T08:28:19;98774.06;;;20.96;100.00
20156;BME280;10238;49.556;10.956;2023-09-07T08:31:08;98766.94;;;21.21;100.00
20156;BME280;10238;49.556;10.956;2023-09-07T08:33:57;98762.34;;;21.35;100.00
20156;BME280;10238;49.556;10.956;2023-09-07T08:36:45;98768.09;;;21.51;100.00
20156;BME280;10238;49.556;10.956;2023-09-07T08:39:34;98765.53;;;21.63;100.00
20156;BME280;10238;49.556;10.956;2023-09-07T08:42:23;98765.69;;;21.87;100.00
20156;BME280;10238;49.556;10.956;2023-09-07T08:45:14;98759.56;;;21.98;100.00
20156;BME280;10238;49.556;10.956;2023-09-07T08:48:08;98764.03;;;22.17;100.00
20156;BME280;10238;49.556;10.956;2023-09-07T08:50:56;98761.66;;;22.34;100.00
20156;BME280;10238;49.556;10.956;2023-09-07T08:53:45;98758.97;;;22.58;100.00
20156;BME280;10238;49.556;10.956;2023-09-07T08:56:35;98754.38;;;22.83;100.00
20156;BME280;10238;49.556;10.956;2023-09-07T08:59:22;98750.78;;;23.07;100.00
20156;BME280;10238;49.556;10.956;2023-09-07T09:02:10;98744.91;;;23.35;100.00
20156;BME280;10238;49.556;10.956;2023-09-07T09:04:59;98749.41;;;23.59;100.00
20156;BME280;10238;49.556;10.956;2023-09-07T09:07:47;98740.56;;;23.82;100.00
20156;BME280;10238;49.556;10.956;2023-09-07T09:10:38;98743.94;;;23.95;100.00
20156;BME280;10238;49.556;10.956;2023-09-07T09:13:30;98744.38;;;24.22;100.00
20156;BME280;10238;49.556;10.956;2023-09-07T09:16:21;98730.88;;;24.56;100.00
20156;BME280;10238;49.556;10.956;2023-09-07T09:19:08;98733.03;;;24.89;100.00
20156;BME280;10238;49.556;10.956;2023-09-07T09:21:56;98727.00;;;25.10;100.00
20156;BME280;10238;49.556;10.956;2023-09-07T09:24:44;98730.88;;;25.25;100.00
20156;BME280;10238;49.556;10.956;2023-09-07T09:27:34;98722.81;;;25.54;100.00
20156;BME280;10238;49.556;10.956;2023-09-07T09:30:25;98720.31;;;25.92;100.00
20156;BME280;10238;49.556;10.956;2023-09-07T09:33:13;98710.81;;;26.22;96.99
20156;BME280;10238;49.556;10.956;2023-09-07T09:36:02;98719.09;;;26.27;91.25
20156;BME280;10238;49.556;10.956;2023-09-07T09:38:52;98701.44;;;26.46;86.32
20156;BME280;10238;49.556;10.956;2023-09-07T09:41:40;98704.25;;;26.68;87.38
20156;BME280;10238;49.556;10.956;2023-09-07T09:44:29;98699.94;;;26.88;83.32
20156;BME280;10238;49.556;10.956;2023-09-07T09:47:21;98694.91;;;27.18;79.81
20156;BME280;10238;49.556;10.956;2023-09-07T09:50:11;98686.56;;;27.47;84.06
20156;BME280;10238;49.556;10.956;2023-09-07T09:53:01;98691.75;;;27.70;87.40
20156;BME280;10238;49.556;10.956;2023-09-07T09:55:51;98685.03;;;28.04;81.77
20156;BME280;10238;49.556;10.956;2023-09-07T09:58:39;98684.38;;;28.18;78.81
20156;BME280;10238;49.556;10.956;2023-09-07T10:01:28;98682.91;;;28.06;79.43
20156;BME280;10238;49.556;10.956;2023-09-07T10:04:20;98681.06;;;28.16;70.44
20156;BME280;10238;49.556;10.956;2023-09-07T10:07:09;98679.91;;;28.07;68.73
20156;BME280;10238;49.556;10.956;2023-09-07T10:09:58;98679.59;;;28.04;74.39
20156;BME280;10238;49.556;10.956;2023-09-07T10:12:52;98671.69;;;28.39;71.78
20156;BME280;10238;49.556;10.956;2023-09-07T10:15:40;98669.84;;;28.81;72.84
20156;BME280;10238;49.556;10.956;2023-09-07T10:18:34;98677.16;;;29.07;78.88
20156;BME280;10238;49.556;10.956;2023-09-07T10:21:25;98672.38;;;29.34;62.66
20156;BME280;10238;49.556;10.956;2023-09-07T10:24:24;98670.78;;;29.43;69.76
20156;BME280;10238;49.556;10.956;2023-09-07T10:27:14;98662.94;;;29.72;74.66
20156;BME280;10238;49.556;10.956;2023-09-07T10:30:11;98653.97;;;30.01;72.93
20156;BME280;10238;49.556;10.956;2023-09-07T10:33:00;98659.97;;;29.78;67.94
20156;BME280;10238;49.556;10.956;2023-09-07T10:35:48;98653.16;;;30.16;75.79
20156;BME280;10238;49.556;10.956;2023-09-07T10:38:37;98645.81;;;30.41;60.92
20156;BME280;10238;49.556;10.956;2023-09-07T10:41:25;98647.69;;;30.46;72.82
20156;BME280;10238;49.556;10.956;2023-09-07T10:44:15;98645.75;;;30.96;73.32
20156;BME280;10238;49.556;10.956;2023-09-07T10:47:04;98635.84;;;31.00;65.55
20156;BME280;10238;49.556;10.956;2023-09-07T10:49:52;98638.06;;;30.88;67.72
20156;BME280;10238;49.556;10.956;2023-09-07T10:52:40;98635.25;;;31.18;68.86
20156;BME280;10238;49.556;10.956;2023-09-07T10:55:36;98638.09;;;31.57;68.83
20156;BME280;10238;49.556;10.956;2023-09-07T10:58:27;98631.25;;;31.60;59.22
20156;BME280;10238;49.556;10.956;2023-09-07T11:01:16;98635.09;;;30.75;60.50
20156;BME280;10238;49.556;10.956;2023-09-07T11:04:04;98624.34;;;30.83;64.61
20156;BME280;10238;49.556;10.956;2023-09-07T11:06:55;98624.22;;;31.29;65.48
20156;BME280;10238;49.556;10.956;2023-09-07T11:09:43;98618.56;;;31.64;57.88
20156;BME280;10238;49.556;10.956;2023-09-07T11:12:37;98616.69;;;31.54;62.55
20156;BME280;10238;49.556;10.956;2023-09-07T11:15:25;98610.59;;;32.06;65.57
20156;BME280;10238;49.556;10.956;2023-09-07T11:18:13;98609.19;;;32.47;61.33
20156;BME280;10238;49.556;10.956;2023-09-07T11:21:06;98608.97;;;32.67;57.99
20156;BME280;10238;49.556;10.956;2023-09-07T11:23:56;98610.00;;;32.76;64.75
20156;BME280;10238;49.556;10.956;2023-09-07T11:26:47;98608.25;;;32.90;55.68
20156;BME280;10238;49.556;10.956;2023-09-07T11:29:36;98612.66;;;32.86;57.77
20156;BME280;10238;49.556;10.956;2023-09-07T11:32:33;98611.91;;;33.04;56.82
20156;BME280;10238;49.556;10.956;2023-09-07T11:35:21;98620.78;;;33.01;54.91
20156;BME280;10238;49.556;10.956;2023-09-07T11:38:13;98608.25;;;32.90;53.90
20156;BME280;10238;49.556;10.956;2023-09-07T11:41:01;98612.16;;;32.79;52.94
20156;BME280;10238;49.556;10.956;2023-09-07T11:43:49;98617.09;;;32.87;58.00
20156;BME280;10238;49.556;10.956;2023-09-07T11:46:41;98605.69;;;32.93;51.17
20156;BME280;10238;49.556;10.956;2023-09-07T11:49:29;98613.22;;;32.83;56.12
20156;BME280;10238;49.556;10.956;2023-09-07T11:52:18;98609.16;;;33.04;51.70
20156;BME280;10238;49.556;10.956;2023-09-07T11:55:07;98610.00;;;33.04;54.63
20156;BME280;10238;49.556;10.956;2023-09-07T11:57:57;98606.59;;;33.36;55.65
20156;BME280;10238;49.556;10.956;2023-09-07T12:00:45;98612.06;;;33.60;50.70
20156;BME280;10238;49.556;10.956;2023-09-07T12:03:34;98597.34;;;33.88;54.55
20156;BME280;10238;49.556;10.956;2023-09-07T12:06:23;98594.81;;;34.23;51.72
20156;BME280;10238;49.556;10.956;2023-09-07T12:09:10;98587.66;;;34.22;49.29
20156;BME280;10238;49.556;10.956;2023-09-07T12:11:58;98588.91;;;33.79;45.11
20156;BME280;10238;49.556;10.956;2023-09-07T12:14:46;98593.06;;;33.58;47.34
20156;BME280;10238;49.556;10.956;2023-09-07T12:17:34;98592.38;;;33.48;52.61
20156;BME280;10238;49.556;10.956;2023-09-07T12:20:23;98592.75;;;33.78;52.38
20156;BME280;10238;49.556;10.956;2023-09-07T12:23:13;98576.94;;;33.84;52.30
20156;BME280;10238;49.556;10.956;2023-09-07T12:26:01;98581.28;;;34.08;48.67
20156;BME280;10238;49.556;10.956;2023-09-07T12:28:51;98582.91;;;34.09;47.37
20156;BME280;10238;49.556;10.956;2023-09-07T12:31:39;98576.78;;;33.75;45.29
20156;BME280;10238;49.556;10.956;2023-09-07T12:34:26;98589.00;;;33.69;47.60
20156;BME280;10238;49.556;10.956;2023-09-07T12:37:19;98577.75;;;33.84;49.30
20156;BME280;10238;49.556;10.956;2023-09-07T12:40:12;98574.28;;;33.97;51.37
20156;BME280;10238;49.556;10.956;2023-09-07T12:43:00;98564.13;;;33.93;47.13
20156;BME280;10238;49.556;10.956;2023-09-07T12:45:48;98571.81;;;33.96;47.73
20156;BME280;10238;49.556;10.956;2023-09-07T12:48:35;98562.09;;;33.80;43.04
20156;BME280;10238;49.556;10.956;2023-09-07T12:51:23;98568.09;;;33.68;45.62
20156;BME280;10238;49.556;10.956;2023-09-07T12:54:12;98569.66;;;33.74;47.10
20156;BME280;10238;49.556;10.956;2023-09-07T12:56:59;98561.38;;;33.93;46.55
20156;BME280;10238;49.556;10.956;2023-09-07T12:59:47;98556.69;;;33.93;43.14
20156;BME280;10238;49.556;10.956;2023-09-07T13:02:35;98561.38;;;33.93;46.39
20156;BME280;10238;49.556;10.956;2023-09-07T13:05:23;98554.06;;;34.02;49.53
20156;BME280;10238;49.556;10.956;2023-09-07T13:08:11;98549.84;;;34.23;45.82
20156;BME280;10238;49.556;10.956;2023-09-07T13:11:00;98554.00;;;34.39;45.13
20156;BME280;10238;49.556;10.956;2023-09-07T13:13:47;98546.31;;;34.17;45.76
20156;BME280;10238;49.556;10.956;2023-09-07T13:16:35;98552.28;;;34.56;45.26
20156;BME280;10238;49.556;10.956;2023-09-07T13:19:23;98546.72;;;34.88;46.14
20156;BME280;10238;49.556;10.956;2023-09-07T13:22:11;98544.88;;;34.97;44.45
20156;BME280;10238;49.556;10.956;2023-09-07T13:24:58;98541.06;;;34.93;44.86
20156;BME280;10238;49.556;10.956;2023-09-07T13:27:48;98537.38;;;35.12;42.73
20156;BME280;10238;49.556;10.956;2023-09-07T13:30:37;98540.00;;;35.30;44.90
20156;BME280;10238;49.556;10.956;2023-09-07T13:33:24;98536.44;;;35.30;45.47
20156;BME280;10238;49.556;10.956;2023-09-07T13:36:12;98526.41;;;35.34;44.64
20156;BME280;10238;49.556;10.956;2023-09-07T13:39:00;98537.69;;;35.24;44.57
20156;BME280;10238;49.556;10.956;2023-09-07T13:41:47;98531.34;;;35.10;41.46
20156;BME280;10238;49.556;10.956;2023-09-07T13:44:36;98530.53;;;35.09;43.81
20156;BME280;10238;49.556;10.956;2023-09-07T13:47:24;98523.84;;;35.24;44.17
20156;BME280;10238;49.556;10.956;2023-09-07T13:50:15;98523.31;;;35.49;45.58
20156;BME280;10238;49.556;10.956;2023-09-07T13:53:03;98521.44;;;35.58;44.41
20156;BME280;10238;49.556;10.956;2023-09-07T13:55:51;98520.88;;;35.47;45.03
20156;BME280;10238;49.556;10.956;2023-09-07T13:58:40;98521.34;;;35.49;42.22
20156;BME280;10238;49.556;10.956;2023-09-07T14:01:29;98519.34;;;35.28;41.91
20156;BME280;10238;49.556;10.956;2023-09-07T14:04:18;98524.88;;;35.14;45.62
20156;BME280;10238;49.556;10.956;2023-09-07T14:07:06;98522.25;;;34.95;42.08
20156;BME280;10238;49.556;10.956;2023-09-07T14:09:54;98526.63;;;34.96;44.36
20156;BME280;10238;49.556;10.956;2023-09-07T14:12:42;98523.47;;;35.17;43.35
20156;BME280;10238;49.556;10.956;2023-09-07T14:15:30;98530.13;;;35.02;43.25
20156;BME280;10238;49.556;10.956;2023-09-07T14:18:20;98515.72;;;34.91;43.09
20156;BME280;10238;49.556;10.956;2023-09-07T14:21:07;98515.34;;;34.52;44.47
20156;BME280;10238;49.556;10.956;2023-09-07T14:23:55;98520.88;;;34.79;44.64
20156;BME280;10238;49.556;10.956;2023-09-07T14:26:43;98519.66;;;35.13;46.84
20156;BME280;10238;49.556;10.956;2023-09-07T14:29:31;98516.41;;;35.11;44.83
20156;BME280;10238;49.556;10.956;2023-09-07T14:32:19;98519.94;;;34.57;45.29